Time;durP1;ratioP1;P1;durP2;ratioP2;P2;SDS_P1;SDS_P2;PMS_P1;PMS_P2;Temp;Humidity;BMP_temperature;BMP_pressure;BME280_temperature;BME280_humidity;BME280_pressure;Samples;Min_cycle;Max_cycle;Signal;HPM_P1;HPM_P2
2022/07/09 00:00:09;;;;;;;5.60;3.45;;;;;;;14.77;78.30;101909.41;7394990;19;20018;-67
2022/07/09 00:02:38;;;;;;;5.18;3.67;;;;;;;14.76;78.79;101910.28;7396994;19;20014;-68
2022/07/09 00:05:08;;;;;;;7.63;3.72;;;;;;;14.76;78.48;101914.69;7396893;19;20086;-67
2022/07/09 00:07:39;;;;;;;4.70;3.15;;;;;;;14.76;78.46;101919.97;7394837;19;20474;-67
2022/07/09 00:10:08;;;;;;;6.15;3.70;;;;;;;14.74;79.03;101921.78;7396395;19;20035;-67
2022/07/09 00:12:37;;;;;;;5.90;3.58;;;;;;;14.72;79.13;101923.56;7396295;19;20375;-67
2022/07/09 00:15:06;;;;;;;6.47;3.30;;;;;;;14.70;79.31;101923.63;7396292;19;20350;-67
2022/07/09 00:17:35;;;;;;;5.60;4.00;;;;;;;14.67;79.35;101915.75;7396172;19;20375;-68
2022/07/09 00:20:05;;;;;;;4.63;3.55;;;;;;;14.66;79.46;101922.81;7395871;19;20029;-67
2022/07/09 00:22:34;;;;;;;5.22;3.78;;;;;;;14.65;79.66;101928.13;7396692;19;20082;-67
2022/07/09 00:25:06;;;;;;;8.38;3.83;;;;;;;14.62;80.26;101928.13;7396545;19;20023;-67
2022/07/09 00:27:34;;;;;;;4.50;3.70;;;;;;;14.58;79.97;101919.41;7394872;19;20074;-67
2022/07/09 00:30:03;;;;;;;4.75;3.60;;;;;;;14.55;80.34;101927.41;7395415;19;20019;-67
2022/07/09 00:32:32;;;;;;;7.13;4.50;;;;;;;14.52;80.22;101930.09;7394307;19;20481;-67
2022/07/09 00:35:00;;;;;;;7.60;4.30;;;;;;;14.49;80.33;101922.22;7395769;19;20031;-67
2022/07/09 00:37:29;;;;;;;4.25;3.80;;;;;;;14.46;80.52;101922.31;7396044;19;20091;-67
2022/07/09 00:39:57;;;;;;;6.47;4.03;;;;;;;14.43;80.70;101923.22;7395307;19;20078;-67
2022/07/09 00:42:28;;;;;;;7.47;3.67;;;;;;;14.40;81.17;101919.78;7395270;19;20018;-68
2022/07/09 00:44:57;;;;;;;9.35;4.20;;;;;;;14.35;81.03;101922.50;7396161;19;20018;-68
2022/07/09 00:47:25;;;;;;;11.77;4.43;;;;;;;14.33;80.77;101911.09;7394589;19;20074;-67
2022/07/09 00:49:55;;;;;;;6.85;4.28;;;;;;;14.31;80.91;101913.75;7395091;19;20094;-68
2022/07/09 00:52:24;;;;;;;5.30;4.28;;;;;;;14.28;81.31;101918.22;7395352;19;20015;-68
2022/07/09 00:54:53;;;;;;;8.80;4.38;;;;;;;14.22;81.54;101911.31;7395690;19;20035;-68
2022/07/09 00:57:22;;;;;;;7.68;4.45;;;;;;;14.17;81.85;101918.44;7393963;19;20042;-68
2022/07/09 00:59:54;;;;;;;9.75;4.43;;;;;;;14.12;82.51;101913.22;7394885;19;20029;-69
2022/07/09 01:02:25;;;;;;;9.40;4.70;;;;;;;14.08;82.32;101919.47;7393502;19;20485;-68
2022/07/09 01:04:53;;;;;;;6.53;4.20;;;;;;;14.04;82.66;101912.50;7394113;19;20015;-68
2022/07/09 01:07:22;;;;;;;9.30;4.40;;;;;;;13.99;83.26;101920.50;7393557;19;20082;-68
2022/07/09 01:09:51;;;;;;;5.78;4.78;;;;;;;13.96;83.36;101922.31;7394226;19;20015;-68
2022/07/09 01:12:19;;;;;;;7.68;5.10;;;;;;;13.93;83.50;101917.09;7393493;19;20043;-68
2022/07/09 01:14:47;;;;;;;7.30;5.28;;;;;;;13.89;83.52;101921.56;7393792;19;20505;-68
2022/07/09 01:17:19;;;;;;;8.80;5.03;;;;;;;13.82;83.42;101910.22;7392202;19;20485;-68
2022/07/09 01:19:48;;;;;;;6.10;4.65;;;;;;;13.82;83.41;101912.00;7394681;19;20014;-68
2022/07/09 01:22:19;;;;;;;8.25;4.93;;;;;;;13.78;83.81;101913.81;7394932;19;20029;-69
2022/07/09 01:24:48;;;;;;;8.40;4.95;;;;;;;13.74;84.03;101906.84;7392812;19;20014;-68
2022/07/09 01:27:16;;;;;;;5.38;4.75;;;;;;;13.71;84.30;101909.56;7393744;19;20018;-68
2022/07/09 01:29:49;;;;;;;8.23;4.90;;;;;;;13.70;84.01;101907.81;7392647;19;20031;-68
2022/07/09 01:32:18;;;;;;;6.45;4.57;;;;;;;13.67;84.16;101905.19;7395055;19;20018;-69
2022/07/09 01:34:46;;;;;;;10.32;5.30;;;;;;;13.63;84.43;101908.78;7392751;19;20023;-68
2022/07/09 01:37:15;;;;;;;7.75;5.30;;;;;;;13.60;84.37;101904.44;7394054;19;20549;-68
2022/07/09 01:39:52;;;;;;;10.48;5.35;;;;;;;13.57;84.46;101904.47;7393790;19;20014;-69
2022/07/09 01:42:21;;;;;;;9.80;5.20;;;;;;;13.54;84.38;101896.63;7394789;19;20019;-68
2022/07/09 01:44:50;;;;;;;8.07;5.00;;;;;;;13.48;84.53;101886.16;7394350;19;20031;-68
2022/07/09 01:47:19;;;;;;;9.68;5.13;;;;;;;13.47;84.26;101887.06;7392840;19;20523;-68
2022/07/09 01:49:47;;;;;;;8.88;5.55;;;;;;;13.44;84.60;101887.97;7393550;19;20078;-69
2022/07/09 01:52:16;;;;;;;10.05;5.63;;;;;;;13.43;84.81;101880.09;7393843;19;20478;-68
2022/07/09 01:54:45;;;;;;;10.25;5.72;;;;;;;13.39;84.70;101884.53;7394360;19;20024;-68
2022/07/09 01:57:16;;;;;;;6.93;5.38;;;;;;;13.35;84.48;101883.69;7401086;19;20387;-69
2022/07/09 01:59:45;;;;;;;8.75;5.78;;;;;;;13.34;84.43;101878.44;7400845;19;20027;-68
2022/07/09 02:02:13;;;;;;;10.48;6.57;;;;;;;13.31;84.49;101878.50;7401041;19;20423;-68
2022/07/09 02:04:42;;;;;;;10.20;6.18;;;;;;;13.28;84.66;101871.50;7400908;19;20486;-68
2022/07/09 02:07:10;;;;;;;15.15;6.93;;;;;;;13.25;84.57;101868.03;7399626;19;20019;-68
2022/07/09 02:09:39;;;;;;;8.52;6.57;;;;;;;13.23;84.80;101869.81;7400445;19;20019;-68
2022/07/09 02:12:08;;;;;;;9.65;6.35;;;;;;;13.19;84.76;101858.44;7398431;19;20019;-68
2022/07/09 02:14:39;;;;;;;11.98;7.68;;;;;;;13.13;84.62;101856.78;7400655;19;20015;-68
2022/07/09 02:17:08;;;;;;;9.50;7.13;;;;;;;13.13;84.65;101855.91;7401390;19;20015;-68
2022/07/09 02:19:36;;;;;;;7.60;6.20;;;;;;;13.11;85.16;101852.44;7398281;19;20481;-68
2022/07/09 02:22:05;;;;;;;10.63;7.28;;;;;;;13.07;85.09;101851.59;7400617;19;20015;-68
2022/07/09 02:24:34;;;;;;;9.82;6.72;;;;;;;13.03;85.14;101852.56;7400585;19;20018;-68
2022/07/09 02:27:02;;;;;;;10.20;7.25;;;;;;;12.98;85.21;101852.59;7397375;19;20078;-68
2022/07/09 02:29:31;;;;;;;8.10;7.10;;;;;;;12.95;85.36;101854.41;7397884;19;20031;-68
2022/07/09 02:32:02;;;;;;;8.00;6.65;;;;;;;12.91;85.50;101855.34;7400056;19;20380;-68
2022/07/09 02:34:31;;;;;;;7.85;6.40;;;;;;;12.87;85.57;101860.63;7399800;19;20010;-68
2022/07/09 02:36:59;;;;;;;7.65;6.65;;;;;;;12.83;86.02;101861.59;7397354;19;20032;-68
2022/07/09 02:39:28;;;;;;;10.02;6.93;;;;;;;12.78;86.27;101855.50;7397075;19;20015;-68
2022/07/09 02:41:56;;;;;;;9.70;6.30;;;;;;;12.75;86.04;101857.31;7399549;19;20518;-68
2022/07/09 02:44:25;;;;;;;7.72;6.50;;;;;;;12.72;86.49;101860.84;7400033;19;20094;-68
2022/07/09 02:46:53;;;;;;;8.20;6.20;;;;;;;12.68;86.61;101856.53;7399365;19;20015;-68
2022/07/09 02:49:24;;;;;;;8.75;7.03;;;;;;;12.63;87.13;101858.34;7397808;19;20015;-68
2022/07/09 02:51:54;;;;;;;10.13;7.10;;;;;;;12.59;87.73;101852.25;7397814;19;20018;-68
2022/07/09 02:54:23;;;;;;;12.65;6.82;;;;;;;12.58;87.83;101857.53;7399707;19;20032;-68
2022/07/09 02:56:51;;;;;;;11.82;7.47;;;;;;;12.54;87.57;101864.59;7399095;19;20031;-68
2022/07/09 02:59:20;;;;;;;10.40;6.93;;;;;;;12.53;87.89;101860.22;7396754;19;20461;-68
2022/07/09 03:01:49;;;;;;;9.52;6.43;;;;;;;12.50;88.08;101855.84;7398909;19;20399;-68
2022/07/09 03:04:17;;;;;;;9.05;6.38;;;;;;;12.50;87.66;101858.50;7396951;19;20022;-68
2022/07/09 03:06:48;;;;;;;16.23;6.15;;;;;;;12.49;87.97;101866.41;7395728;19;20082;-68
2022/07/09 03:09:18;;;;;;;14.93;6.35;;;;;;;12.47;87.76;101861.16;7396630;19;20074;-69
2022/07/09 03:11:46;;;;;;;9.98;5.30;;;;;;;12.47;87.99;101865.53;7398639;19;20018;-68
2022/07/09 03:14:15;;;;;;;14.50;6.70;;;;;;;12.46;88.08;101867.31;7398614;19;20529;-68
2022/07/09 03:16:43;;;;;;;13.48;6.43;;;;;;;12.48;87.47;101865.53;7398531;19;20423;-68
2022/07/09 03:19:12;;;;;;;15.25;6.20;;;;;;;12.49;88.01;101853.25;7396309;19;20024;-68
2022/07/09 03:21:40;;;;;;;11.30;6.13;;;;;;;12.51;87.61;101857.59;7396614;19;20036;-68
2022/07/09 03:24:12;;;;;;;8.93;5.45;;;;;;;12.54;87.10;101854.06;7396339;19;20015;-68
2022/07/09 03:26:40;;;;;;;8.98;5.53;;;;;;;12.58;87.27;101858.41;7399039;19;20042;-68
2022/07/09 03:29:09;;;;;;;10.05;5.32;;;;;;;12.62;87.03;101867.97;7398379;19;20401;-69
2022/07/09 03:31:38;;;;;;;9.50;5.88;;;;;;;12.67;86.92;101867.94;7397840;19;20021;-68
2022/07/09 03:34:06;;;;;;;11.15;5.65;;;;;;;12.69;86.81;101864.41;7398154;19;20022;-68
2022/07/09 03:36:36;;;;;;;12.00;6.07;;;;;;;12.69;86.80;101860.91;7397972;19;20010;-68
2022/07/09 03:39:04;;;;;;;9.77;5.90;;;;;;;12.75;87.07;101874.00;7397902;19;20015;-69
2022/07/09 03:41:35;;;;;;;9.18;5.35;;;;;;;12.75;86.55;101871.38;7396615;19;20162;-69
2022/07/09 03:44:10;;;;;;;10.48;6.40;;;;;;;12.79;86.67;101873.06;7398734;19;20477;-68
2022/07/09 03:46:39;;;;;;;12.90;7.38;;;;;;;12.81;86.87;101870.41;7397643;19;20524;-68
2022/07/09 03:49:08;;;;;;;12.90;6.35;;;;;;;12.80;86.79;101872.19;7395408;19;20388;-68
2022/07/09 03:51:36;;;;;;;12.95;6.70;;;;;;;12.80;86.89;101872.19;7397396;19;20021;-69
2022/07/09 03:54:05;;;;;;;8.82;5.45;;;;;;;12.81;86.72;101871.25;7397236;19;20110;-68
2022/07/09 03:56:36;;;;;;;10.07;5.47;;;;;;;12.83;86.41;101866.84;7395726;19;20035;-68
2022/07/09 03:59:05;;;;;;;11.77;6.45;;;;;;;12.86;86.31;101869.47;7395879;19;20022;-69
2022/07/09 04:01:33;;;;;;;17.27;6.18;;;;;;;12.90;86.15;101874.69;7397074;19;20031;-69
2022/07/09 04:04:02;;;;;;;10.77;6.15;;;;;;;12.92;85.88;101872.91;7395176;19;20380;-68
2022/07/09 04:06:30;;;;;;;11.60;6.18;;;;;;;12.95;85.76;101878.97;7396951;19;20489;-68
2022/07/09 04:09:03;;;;;;;9.13;5.45;;;;;;;12.97;85.54;101884.25;7395527;19;20014;-69
2022/07/09 04:11:32;;;;;;;12.70;6.50;;;;;;;12.98;85.13;101888.63;7397605;19;20015;-68
2022/07/09 04:14:03;;;;;;;10.65;5.85;;;;;;;12.96;85.13;101880.72;7395347;19;20022;-68
2022/07/09 04:16:32;;;;;;;8.98;5.38;;;;;;;12.97;84.96;101871.06;7397501;19;20022;-68
2022/07/09 04:19:01;;;;;;;10.57;5.55;;;;;;;12.97;85.05;101860.53;7392816;19;20010;-68
2022/07/09 04:21:29;;;;;;;12.68;6.25;;;;;;;12.98;84.96;101864.91;7396280;19;20018;-68
2022/07/09 04:23:58;;;;;;;7.95;5.28;;;;;;;12.99;84.69;101864.88;7394312;19;20018;-68
2022/07/09 04:26:26;;;;;;;11.50;6.72;;;;;;;13.03;84.63;101863.94;7394426;19;20035;-68
2022/07/09 04:28:55;;;;;;;9.95;6.32;;;;;;;13.06;84.54;101860.41;7394198;19;20018;-68
2022/07/09 04:31:26;;;;;;;10.05;5.95;;;;;;;13.09;84.30;101855.09;7394467;19;20045;-68
2022/07/09 04:33:54;;;;;;;8.95;6.20;;;;;;;13.11;84.13;101863.84;7396388;19;20031;-68
2022/07/09 04:36:23;;;;;;;10.90;6.18;;;;;;;13.15;84.01;101856.75;7395502;19;20510;-68
2022/07/09 04:38:51;;;;;;;9.38;5.85;;;;;;;13.18;83.86;101859.34;7396010;19;20399;-68
2022/07/09 04:41:20;;;;;;;10.75;6.45;;;;;;;13.22;84.01;101866.31;7393983;19;20481;-68
2022/07/09 04:43:48;;;;;;;9.50;5.75;;;;;;;13.25;83.91;101861.00;7394408;19;20032;-68
2022/07/09 04:46:17;;;;;;;7.43;5.70;;;;;;;13.29;83.66;101861.81;7394329;19;20026;-68
2022/07/09 04:48:48;;;;;;;16.25;6.13;;;;;;;13.32;83.69;101862.66;7394787;19;20435;-68
2022/07/09 04:51:16;;;;;;;13.02;5.03;;;;;;;13.35;83.73;101861.72;7394127;19;20027;-69
2022/07/09 04:53:45;;;;;;;11.93;5.78;;;;;;;13.38;83.47;101869.59;7393769;19;20024;-68
2022/07/09 04:56:13;;;;;;;12.85;5.82;;;;;;;13.41;83.57;101872.22;7395705;19;20014;-68
2022/07/09 04:58:51;;;;;;;9.63;5.47;;;;;;;13.45;83.45;101883.59;7395620;19;20022;-68
2022/07/09 05:01:19;;;;;;;13.70;5.70;;;;;;;13.46;83.50;101878.28;7393857;19;20021;-68
2022/07/09 05:03:51;;;;;;;13.85;6.13;;;;;;;13.50;82.98;101881.75;7393469;19;20544;-68
2022/07/09 05:06:22;;;;;;;12.27;5.85;;;;;;;13.53;83.01;101881.69;7395864;19;20017;-69
2022/07/09 05:08:50;;;;;;;12.32;5.95;;;;;;;13.55;82.91;101884.28;7393528;19;20018;-68
2022/07/09 05:11:25;;;;;;;10.82;6.13;;;;;;;13.56;82.93;101881.66;7393540;19;20096;-68
2022/07/09 05:13:53;;;;;;;9.38;5.50;;;;;;;13.60;82.72;101885.97;7395184;19;20023;-68
2022/07/09 05:16:22;;;;;;;15.90;6.95;;;;;;;13.64;82.47;101886.81;7392980;19;20032;-68
2022/07/09 05:18:53;;;;;;;13.35;5.63;;;;;;;13.66;82.50;101890.25;7393597;19;20541;-67
2022/07/09 05:21:22;;;;;;;11.75;6.28;;;;;;;13.64;82.42;101889.44;7392670;19;20031;-68
2022/07/09 05:23:50;;;;;;;10.98;6.40;;;;;;;13.63;82.47;101895.59;7393135;19;20090;-68
2022/07/09 05:26:19;;;;;;;9.45;5.82;;;;;;;13.62;82.64;101900.00;7392673;19;20018;-68
2022/07/09 05:28:47;;;;;;;12.05;5.30;;;;;;;13.62;82.46;101889.47;7393447;19;20010;-68
2022/07/09 05:31:15;;;;;;;11.52;5.38;;;;;;;13.65;82.64;101892.03;7398948;19;20082;-68
2022/07/09 05:33:44;;;;;;;10.65;5.32;;;;;;;13.71;82.32;101895.47;7399152;19;20070;-68
2022/07/09 05:36:16;;;;;;;9.77;5.18;;;;;;;13.74;81.92;101895.44;7402015;19;20487;-68
2022/07/09 05:38:44;;;;;;;10.93;5.00;;;;;;;13.76;81.91;101899.78;7402081;19;20473;-67
2022/07/09 05:41:14;;;;;;;12.98;6.57;;;;;;;13.78;81.78;101890.06;7398791;19;20582;-68
2022/07/09 05:43:42;;;;;;;10.45;4.57;;;;;;;13.77;81.60;101892.72;7398538;19;20440;-67
2022/07/09 05:46:11;;;;;;;12.88;4.70;;;;;;;13.75;81.68;101887.50;7401843;19;20019;-69
2022/07/09 05:48:39;;;;;;;9.45;4.60;;;;;;;13.75;81.70;101881.31;7400458;19;20039;-68
2022/07/09 05:51:08;;;;;;;12.52;5.65;;;;;;;13.79;81.64;101883.03;7398667;19;20043;-68
2022/07/09 05:53:39;;;;;;;13.40;5.25;;;;;;;13.83;81.72;101882.09;7401747;19;20078;-68
2022/07/09 05:56:09;;;;;;;11.18;4.68;;;;;;;13.87;81.31;101875.00;7402161;19;20046;-68
2022/07/09 05:58:37;;;;;;;10.77;4.65;;;;;;;13.91;80.96;101872.25;7398454;19;20480;-67
2022/07/09 06:01:07;;;;;;;8.82;4.88;;;;;;;13.95;80.71;101875.72;7398529;19;20019;-68
2022/07/09 06:03:35;;;;;;;12.25;4.90;;;;;;;13.99;80.67;101874.78;7398257;19;20015;-68
2022/07/09 06:06:04;;;;;;;10.88;5.85;;;;;;;14.04;80.54;101875.56;7398609;19;20024;-68
2022/07/09 06:08:33;;;;;;;7.80;4.80;;;;;;;14.07;80.07;101861.44;7397650;19;20390;-68
2022/07/09 06:11:04;;;;;;;11.82;4.75;;;;;;;14.12;80.02;101864.88;7398907;19;20033;-69
2022/07/09 06:13:33;;;;;;;12.82;5.30;;;;;;;14.18;79.97;101864.75;7398832;19;20023;-68
2022/07/09 06:16:01;;;;;;;12.50;5.50;;;;;;;14.23;79.71;101867.28;7400481;19;20375;-68
2022/07/09 06:18:30;;;;;;;12.77;5.78;;;;;;;14.28;79.25;101868.06;7399540;19;20007;-68
2022/07/09 06:20:58;;;;;;;12.23;5.40;;;;;;;14.34;79.44;101855.63;7397530;19;20035;-68
2022/07/09 06:23:27;;;;;;;11.80;4.95;;;;;;;14.38;78.77;101853.81;7399886;19;20385;-68
2022/07/09 06:25:56;;;;;;;9.50;4.75;;;;;;;14.43;78.33;101870.44;7397717;19;20078;-68
2022/07/09 06:28:27;;;;;;;12.90;5.65;;;;;;;14.47;78.57;101864.19;7397710;19;20022;-68
2022/07/09 06:30:55;;;;;;;9.25;4.40;;;;;;;14.52;78.43;101864.09;7397746;19;20027;-68
2022/07/09 06:33:24;;;;;;;8.57;4.15;;;;;;;14.58;78.20;101863.09;7400084;19;20023;-68
2022/07/09 06:35:53;;;;;;;8.65;4.57;;;;;;;14.63;78.03;101856.81;7396933;19;20035;-69
2022/07/09 06:38:21;;;;;;;8.30;4.88;;;;;;;14.68;77.45;101859.38;7396955;19;20347;-69
2022/07/09 06:40:50;;;;;;;10.40;3.95;;;;;;;14.74;77.36;101859.25;7395613;19;20042;-67
2022/07/09 06:43:18;;;;;;;12.30;4.57;;;;;;;14.77;76.71;101850.38;7399746;19;20086;-67
2022/07/09 06:45:49;;;;;;;9.35;4.07;;;;;;;14.79;76.21;101844.16;7399726;19;20094;-67
2022/07/09 06:48:18;;;;;;;6.65;3.65;;;;;;;14.85;76.26;101845.81;7399534;19;20165;-67
2022/07/09 06:50:46;;;;;;;9.18;4.78;;;;;;;14.88;76.04;101845.75;7396390;19;20018;-68
2022/07/09 06:53:15;;;;;;;11.07;4.20;;;;;;;14.92;75.89;101844.75;7399491;19;20098;-67
2022/07/09 06:55:43;;;;;;;8.13;4.35;;;;;;;14.98;75.31;101841.97;7398947;19;20514;-68
2022/07/09 06:58:12;;;;;;;12.32;3.90;;;;;;;15.05;75.33;101855.94;7396639;19;20490;-68
2022/07/09 07:00:40;;;;;;;11.00;4.00;;;;;;;15.13;75.18;101848.69;7397171;19;20074;-67
2022/07/09 07:03:11;;;;;;;13.82;3.92;;;;;;;15.20;74.93;101846.78;7399211;19;20036;-68
2022/07/09 07:05:40;;;;;;;8.30;3.65;;;;;;;15.26;74.47;101846.63;7399268;19;20082;-68
2022/07/09 07:08:09;;;;;;;7.85;3.67;;;;;;;15.31;73.87;101841.25;7398626;19;20086;-68
2022/07/09 07:10:37;;;;;;;7.25;3.70;;;;;;;15.37;74.08;101849.03;7396880;19;20021;-68
2022/07/09 07:13:06;;;;;;;14.77;3.63;;;;;;;15.41;73.84;101845.38;7395975;19;20035;-68
2022/07/09 07:15:34;;;;;;;10.77;3.92;;;;;;;15.48;73.87;101843.47;7398454;19;20155;-68
2022/07/09 07:18:03;;;;;;;13.95;4.00;;;;;;;15.59;73.51;101838.75;7396850;19;20529;-67
2022/07/09 07:20:34;;;;;;;22.25;11.05;;;;;;;15.74;73.39;101834.00;7395236;19;20027;-67
2022/07/09 07:23:02;;;;;;;9.75;4.20;;;;;;;15.88;72.47;101826.59;7398974;19;20018;-67
2022/07/09 07:25:31;;;;;;;6.88;3.35;;;;;;;15.97;72.15;101833.41;7398244;19;20022;-67
2022/07/09 07:28:01;;;;;;;10.63;3.65;;;;;;;16.08;71.40;101831.34;7397897;19;20074;-68
2022/07/09 07:30:32;;;;;;;5.80;3.35;;;;;;;16.23;71.32;101821.25;7396494;19;20018;-68
2022/07/09 07:33:01;;;;;;;8.95;3.00;;;;;;;16.35;70.99;101828.88;7397486;19;20014;-69
2022/07/09 07:35:29;;;;;;;7.13;3.47;;;;;;;16.45;70.20;101822.38;7397378;19;20422;-68
2022/07/09 07:38:00;;;;;;;6.45;2.75;;;;;;;16.56;69.49;101829.13;7395708;19;20081;-67
2022/07/09 07:40:29;;;;;;;7.88;3.17;;;;;;;16.65;69.39;101828.00;7396420;19;20087;-68
2022/07/09 07:42:57;;;;;;;7.05;2.72;;;;;;;16.75;69.09;101835.59;7397692;19;20031;-68
2022/07/09 07:45:26;;;;;;;9.55;3.17;;;;;;;16.83;68.31;101821.25;7397093;19;20031;-67
2022/07/09 07:47:56;;;;;;;9.25;3.38;;;;;;;16.87;68.15;101818.47;7395330;19;20026;-68
2022/07/09 07:50:25;;;;;;;8.73;3.20;;;;;;;16.96;67.85;101817.38;7395716;19;20022;-68
2022/07/09 07:52:54;;;;;;;5.45;2.08;;;;;;;16.99;67.46;101819.91;7397688;19;20026;-67
2022/07/09 07:55:25;;;;;;;7.15;2.10;;;;;;;16.99;66.31;101819.91;7395193;19;20018;-68
2022/07/09 07:57:54;;;;;;;5.82;3.35;;;;;;;17.03;67.28;101810.06;7395114;19;20075;-68
2022/07/09 08:00:22;;;;;;;8.20;2.60;;;;;;;17.03;66.56;101815.38;7395575;19;20481;-68
2022/07/09 08:02:51;;;;;;;5.95;2.22;;;;;;;17.04;66.26;101815.31;7396615;19;20545;-68
2022/07/09 08:05:19;;;;;;;8.82;2.40;;;;;;;17.09;66.32;101816.03;7396437;19;20015;-68
2022/07/09 08:07:48;;;;;;;4.80;2.40;;;;;;;17.16;66.43;101805.22;7396626;19;20031;-68
2022/07/09 08:10:16;;;;;;;6.00;2.60;;;;;;;17.22;65.64;101807.69;7395247;19;20086;-68
2022/07/09 08:12:47;;;;;;;4.78;2.42;;;;;;;17.24;65.52;101803.22;7395195;19;20014;-68
2022/07/09 08:15:16;;;;;;;5.85;2.83;;;;;;;17.28;65.97;101791.59;7396317;19;20082;-67
2022/07/09 08:17:44;;;;;;;6.10;2.20;;;;;;;17.36;65.75;101794.84;7394379;19;20015;-69
2022/07/09 08:20:13;;;;;;;5.28;2.13;;;;;;;17.46;65.43;101792.75;7394486;19;20032;-68
2022/07/09 08:22:42;;;;;;;4.63;2.35;;;;;;;17.54;65.39;101798.66;7396163;19;20081;-68
2022/07/09 08:25:11;;;;;;;5.47;1.98;;;;;;;17.58;64.85;101797.63;7393720;19;20018;-67
2022/07/09 08:27:39;;;;;;;4.85;2.28;;;;;;;17.59;65.09;101798.47;7393641;19;20043;-68
2022/07/09 08:30:12;;;;;;;10.93;2.63;;;;;;;17.58;64.66;101796.78;7393179;19;20371;-68
2022/07/09 08:32:40;;;;;;;4.43;2.58;;;;;;;17.59;65.17;101794.06;7393958;19;20031;-67
2022/07/09 08:35:11;;;;;;;10.85;6.47;;;;;;;17.60;64.71;101797.56;7393817;19;20078;-68
2022/07/09 08:37:39;;;;;;;4.43;2.00;;;;;;;17.67;64.96;101799.09;7395455;19;20010;-68
2022/07/09 08:40:10;;;;;;;6.85;2.10;;;;;;;17.70;64.31;101806.94;7392553;19;20035;-69
2022/07/09 08:42:39;;;;;;;7.60;2.90;;;;;;;17.67;64.84;101809.72;7394380;19;20375;-68
2022/07/09 08:45:14;;;;;;;3.70;1.67;;;;;;;17.65;64.43;101795.63;7395405;19;20022;-71
2022/07/09 08:47:43;;;;;;;4.40;2.20;;;;;;;17.74;63.95;101790.00;7395373;19;20086;-69
2022/07/09 08:50:12;;;;;;;5.45;2.60;;;;;;;17.75;64.44;101799.72;7393006;19;20523;-69
2022/07/09 08:52:42;;;;;;;3.92;2.25;;;;;;;17.75;63.99;101782.91;7394807;19;20082;-68
2022/07/09 08:55:12;;;;;;;6.32;2.33;;;;;;;17.82;64.41;101784.44;7394606;19;20423;-69
2022/07/09 08:57:41;;;;;;;6.72;2.50;;;;;;;17.85;63.36;101784.31;7395084;19;20022;-70
2022/07/09 09:00:12;;;;;;;5.35;2.10;;;;;;;17.84;63.61;101768.44;7394360;19;20035;-71
2022/07/09 09:02:41;;;;;;;4.93;2.40;;;;;;;17.84;63.64;101765.78;7393262;19;20365;-72
2022/07/09 09:05:15;;;;;;;3.22;1.77;;;;;;;17.86;63.52;101772.78;7391474;19;20010;-71
2022/07/09 09:07:43;;;;;;;;;;;;;;;17.88;63.43;101757.66;7396440;19;20022;-71
2022/07/09 09:10:23;;;;;;;7.10;2.38;;;;;;;17.96;63.54;101752.09;7393599;19;19926;-71
2022/07/09 09:12:51;;;;;;;6.55;2.05;;;;;;;18.06;63.72;101765.91;7395282;19;20014;-71
2022/07/09 09:15:22;;;;;;;3.22;1.90;;;;;;;18.14;63.29;101766.47;7395311;19;20111;-71
2022/07/09 09:17:51;;;;;;;5.03;2.30;;;;;;;18.27;63.35;101769.53;7393370;19;20027;-71
2022/07/09 09:20:20;;;;;;;4.70;1.90;;;;;;;18.40;62.59;101765.50;7392839;19;20014;-71
2022/07/09 09:22:52;;;;;;;4.78;2.17;;;;;;;18.52;62.24;101768.59;7394094;19;20019;-71
2022/07/09 09:25:28;;;;;;;4.40;1.70;;;;;;;18.59;61.51;101763.91;7394479;19;20018;-71
2022/07/09 09:27:58;;;;;;;2.35;1.58;;;;;;;18.61;60.69;101773.56;7395052;19;20079;-71
2022/07/09 09:30:32;;;;;;;3.75;2.00;;;;;;;18.65;61.16;101761.91;7392660;19;20035;-70
2022/07/09 09:33:02;;;;;;;5.95;1.88;;;;;;;18.63;61.97;101770.84;7393263;19;20031;-68
2022/07/09 09:35:32;;;;;;;3.63;1.70;;;;;;;18.59;61.44;101780.75;7394510;19;20019;-69
2022/07/09 09:38:01;;;;;;;4.40;2.28;;;;;;;18.56;61.91;101770.22;7394369;19;20015;-68
2022/07/09 09:40:29;;;;;;;5.43;1.88;;;;;;;18.54;62.29;101766.75;7392355;19;20022;-69
2022/07/09 09:43:00;;;;;;;4.22;2.00;;;;;;;18.54;62.03;101761.44;7391411;19;20489;-69
2022/07/09 09:45:32;;;;;;;5.50;3.03;;;;;;;18.56;62.43;101764.91;7392274;19;20031;-69
2022/07/09 09:48:02;;;;;;;4.75;2.10;;;;;;;18.51;61.82;101764.22;7393341;19;20414;-69
2022/07/09 09:50:30;;;;;;;3.28;1.90;;;;;;;18.46;62.25;101768.84;7391222;19;20086;-69
2022/07/09 09:52:59;;;;;;;3.15;1.85;;;;;;;18.36;62.32;101758.56;7393259;19;20015;-69
2022/07/09 09:55:27;;;;;;;2.67;1.45;;;;;;;18.33;62.66;101755.16;7393481;19;20090;-69
2022/07/09 09:57:57;;;;;;;3.83;1.60;;;;;;;18.29;62.56;101756.22;7393264;19;20443;-69
2022/07/09 10:00:26;;;;;;;4.97;2.13;;;;;;;18.26;62.50;101769.59;7392796;19;20091;-69
2022/07/09 10:02:57;;;;;;;3.92;1.52;;;;;;;18.24;62.33;101767.88;7393418;19;20481;-69
2022/07/09 10:05:26;;;;;;;11.32;2.97;;;;;;;18.27;62.90;101766.03;7392002;19;20015;-69
2022/07/09 10:07:54;;;;;;;2.85;1.50;;;;;;;18.26;62.38;101762.53;7391871;19;20027;-69
2022/07/09 10:10:24;;;;;;;3.78;1.70;;;;;;;18.25;62.66;101744.84;7392341;19;20032;-69
2022/07/09 10:12:52;;;;;;;1.88;1.40;;;;;;;18.29;62.69;101753.56;7393430;19;20023;-69
2022/07/09 10:15:26;;;;;;;3.53;1.60;;;;;;;18.31;62.16;101739.28;7393548;19;20446;-69
2022/07/09 10:17:57;;;;;;;3.63;2.50;;;;;;;18.40;62.23;101732.75;7397912;19;20022;-68
2022/07/09 10:20:34;;;;;;;4.90;2.33;;;;;;;18.51;61.80;101737.63;7397316;19;20475;-69
2022/07/09 10:23:09;;;;;;;3.00;1.58;;;;;;;18.67;61.99;101730.78;7399822;19;20078;-69
2022/07/09 10:25:46;;;;;;;3.72;1.67;;;;;;;18.81;61.09;101727.56;7399554;19;20015;-68
2022/07/09 10:28:18;;;;;;;3.38;1.52;;;;;;;18.91;60.45;101722.78;7400437;19;20085;-69
2022/07/09 10:30:47;;;;;;;3.03;1.20;;;;;;;18.99;60.55;101730.44;7397719;19;20366;-69
2022/07/09 10:33:24;;;;;;;4.60;1.40;;;;;;;19.07;60.18;101709.72;7400423;19;20087;-69
2022/07/09 10:35:55;;;;;;;3.40;1.40;;;;;;;19.15;59.88;101722.69;7400050;19;20119;-69
2022/07/09 10:38:24;;;;;;;2.25;1.35;;;;;;;19.19;59.94;101716.31;7396854;19;20015;-69
2022/07/09 10:41:00;;;;;;;2.85;1.48;;;;;;;19.25;58.91;101715.19;7396797;19;20489;-69
2022/07/09 10:43:45;;;;;;;4.35;2.15;;;;;;;19.26;57.87;101704.47;7400000;19;20387;-69
2022/07/09 10:46:14;;;;;;;2.72;1.15;;;;;;;19.34;58.82;101717.44;7399514;19;20079;-69
2022/07/09 10:48:47;;;;;;;3.03;1.25;;;;;;;19.45;59.11;101715.19;7399799;19;20434;-69
2022/07/09 10:51:20;;;;;;;4.43;1.58;;;;;;;19.63;58.47;101720.63;7397462;19;20014;-70
2022/07/09 10:53:49;;;;;;;4.18;1.40;;;;;;;19.75;57.85;101712.09;7400230;19;20014;-69
2022/07/09 10:56:20;;;;;;;1.77;1.02;;;;;;;19.82;56.26;101726.00;7399757;19;20023;-69
2022/07/09 10:58:50;;;;;;;2.28;1.20;;;;;;;19.78;56.60;101708.44;7399990;19;20019;-69
2022/07/09 11:01:23;;;;;;;2.80;1.17;;;;;;;19.78;56.38;101705.78;7397259;19;20040;-69
2022/07/09 11:03:54;;;;;;;1.20;0.95;;;;;;;19.80;56.71;101707.44;7399748;19;20018;-68
2022/07/09 11:06:23;;;;;;;2.88;1.10;;;;;;;19.85;55.35;101709.91;7396940;19;20023;-69
2022/07/09 11:08:51;;;;;;;2.30;1.20;;;;;;;19.91;55.63;101714.94;7399156;19;20042;-69
2022/07/09 11:11:23;;;;;;;2.58;1.17;;;;;;;19.92;55.49;101718.50;7396408;19;20014;-69
2022/07/09 11:13:54;;;;;;;3.20;1.30;;;;;;;19.91;55.63;101708.78;7399477;19;20029;-69
2022/07/09 11:16:26;;;;;;;2.47;1.65;;;;;;;19.87;55.15;101708.03;7398502;19;20480;-69
2022/07/09 11:18:58;;;;;;;2.20;1.20;;;;;;;19.82;55.60;101704.69;7396896;19;20011;-69
2022/07/09 11:21:27;;;;;;;3.85;1.20;;;;;;;19.79;55.59;101700.38;7397411;19;20022;-69
2022/07/09 11:23:55;;;;;;;4.28;1.30;;;;;;;19.78;55.35;101711.94;7397376;19;20035;-69
2022/07/09 11:26:24;;;;;;;2.33;1.00;;;;;;;19.82;55.55;101699.38;7397488;19;20020;-69
2022/07/09 11:28:53;;;;;;;3.13;1.10;;;;;;;19.86;55.17;101693.00;7397947;19;20022;-69
2022/07/09 11:31:22;;;;;;;2.08;0.90;;;;;;;19.92;55.36;101695.38;7395001;19;20481;-69